createdAt,value
2022-10-19T00:05:17.492Z,95435.13
2022-10-19T00:13:40.828Z,95443.55
2022-10-19T00:22:04.209Z,95439.15
2022-10-19T00:30:26.942Z,95388.08
2022-10-19T00:38:50.723Z,95330.34
2022-10-19T00:47:14.021Z,95299.52
2022-10-19T00:55:39.778Z,95276.69
2022-10-19T01:04:03.791Z,95255.60
2022-10-19T01:12:44.742Z,95229.42
2022-10-19T01:21:19.828Z,95164.61
2022-10-19T01:30:04.740Z,95138.36
2022-10-19T01:38:40.981Z,95108.59
2022-10-19T01:47:09.239Z,95062.39
2022-10-19T01:55:33.702Z,95004.82
2022-10-19T02:03:58.198Z,94913.56
2022-10-19T02:12:21.768Z,94852.73
2022-10-19T02:20:44.739Z,94789.73
2022-10-19T02:29:12.238Z,94728.33
2022-10-19T02:46:09.210Z,94601.17
2022-10-19T02:54:31.980Z,94559.29
2022-10-19T03:02:54.755Z,94562.67
2022-10-19T03:11:17.405Z,94584.59
2022-10-19T03:19:40.195Z,94622.27
2022-10-19T03:28:03.463Z,94635.60
2022-10-19T03:36:34.282Z,94613.77
2022-10-19T03:44:56.886Z,94584.69
2022-10-19T03:53:19.598Z,94568.82
2022-10-19T04:01:46.483Z,94567.27
2022-10-19T04:10:11.867Z,94565.81
2022-10-19T04:18:35.222Z,94560.22
2022-10-19T04:26:58.046Z,94538.13
2022-10-19T04:35:20.714Z,94515.12
2022-10-19T04:43:45.335Z,94493.28
2022-10-19T04:52:08.323Z,94457.56
2022-10-19T05:00:31.130Z,94429.90
2022-10-19T05:08:54.378Z,94406.27
2022-10-19T05:17:17.220Z,94392.41
2022-10-19T05:25:39.959Z,94405.83
2022-10-19T05:34:04.171Z,94417.77
2022-10-19T05:42:27.023Z,94435.38
2022-10-19T05:50:55.245Z,94447.48
2022-10-19T05:59:20.528Z,94458.39
2022-10-19T06:07:43.307Z,94503.20
2022-10-19T06:16:07.498Z,94526.28
2022-10-19T06:24:30.377Z,94543.06
2022-10-19T06:32:53.552Z,94574.01
2022-10-19T06:41:17.541Z,94626.68
2022-10-19T06:49:40.281Z,94655.23
2022-10-19T06:58:04.293Z,94723.23
2022-10-19T07:06:29.093Z,94790.30
2022-10-19T07:14:57.031Z,94893.48
2022-10-19T07:23:19.959Z,95035.64
2022-10-19T07:31:43.909Z,95026.72
2022-10-19T07:40:07.795Z,94959.73
2022-10-19T07:48:31.026Z,94904.55
2022-10-19T07:56:55.907Z,94929.52
2022-10-19T08:05:19.185Z,95030.69
2022-10-19T08:13:43.721Z,95052.88
2022-10-19T08:22:06.549Z,95052.66
2022-10-19T08:30:29.286Z,95063.86
2022-10-19T08:38:52.559Z,95125.42
2022-10-19T08:47:17.427Z,95143.48
2022-10-19T08:55:50.009Z,95136.25
2022-10-19T09:04:36.629Z,95159.23
2022-10-19T09:13:15.526Z,95212.50
2022-10-19T09:21:47.783Z,95254.50
2022-10-19T09:30:19.737Z,95355.86
2022-10-19T09:38:42.644Z,95275.11
2022-10-19T09:47:15.346Z,95166.53
2022-10-19T09:55:43.155Z,95208.61
2022-10-19T10:04:18.551Z,95184.88
2022-10-19T10:12:44.019Z,95114.38
2022-10-19T10:21:32.081Z,95046.86
2022-10-19T10:38:44.967Z,95157.59
2022-10-19T10:47:14.714Z,95247.11
2022-10-19T10:55:42.321Z,95189.52
2022-10-19T11:04:11.840Z,95146.77
2022-10-19T11:12:41.547Z,95128.76
2022-10-19T11:21:13.240Z,95025.73
2022-10-19T11:29:35.879Z,94914.58
2022-10-19T11:38:20.394Z,94811.68
2022-10-19T11:46:56.747Z,94734.58
2022-10-19T11:55:37.704Z,94699.69
2022-10-19T12:04:19.088Z,94706.48
2022-10-19T12:12:53.537Z,94745.48
2022-10-19T12:21:33.725Z,94763.33
2022-10-19T12:30:03.403Z,94781.92
2022-10-19T12:39:00.173Z,94818.48
2022-10-19T12:47:25.538Z,94933.88
2022-10-19T12:56:02.307Z,95012.89
2022-10-19T13:04:28.376Z,95073.33
2022-10-19T13:12:51.899Z,95096.95
2022-10-19T13:21:49.759Z,95229.46
2022-10-19T13:30:35.788Z,95291.14
2022-10-19T13:38:59.679Z,95211.69
2022-10-19T13:56:25.930Z,94993.04
2022-10-19T14:05:10.914Z,94970.48
2022-10-19T14:13:33.610Z,94970.57
2022-10-19T14:22:19.733Z,94975.45
2022-10-19T14:30:43.759Z,94972.49
2022-10-19T14:39:07.596Z,94714.97
2022-10-19T14:47:30.668Z,94472.85
2022-10-19T14:55:58.355Z,94299.45
2022-10-19T15:04:25.441Z,94189.44
2022-10-19T15:12:51.683Z,94103.83
2022-10-19T15:21:19.359Z,94021.70
2022-10-19T15:29:59.119Z,93941.25
2022-10-19T15:38:26.874Z,93885.93
2022-10-19T15:46:49.603Z,93819.91
2022-10-19T15:55:14.741Z,93737.45
2022-10-19T16:03:37.429Z,93681.52
2022-10-19T16:12:00.203Z,93652.10
2022-10-19T16:20:24.013Z,93624.18
2022-10-19T16:28:48.575Z,93608.78
2022-10-19T16:37:11.319Z,93640.65
2022-10-19T16:45:34.233Z,93676.12
2022-10-19T16:54:03.165Z,93676.56
2022-10-19T17:02:27.143Z,93655.44
2022-10-19T17:10:49.838Z,93622.27
2022-10-19T17:19:12.692Z,93591.06
2022-10-19T17:27:36.462Z,93592.06
2022-10-19T17:36:08.313Z,93565.31
2022-10-19T17:44:31.911Z,93479.21
2022-10-19T17:52:56.960Z,93399.29
2022-10-19T18:01:21.459Z,93342.52
2022-10-19T18:09:44.151Z,93252.38
2022-10-19T18:18:07.050Z,93184.58
2022-10-19T18:26:31.990Z,93155.57
2022-10-19T18:34:55.107Z,93139.59
2022-10-19T18:43:17.861Z,93103.14
2022-10-19T18:51:40.570Z,93058.46
2022-10-19T19:00:04.363Z,93025.78
2022-10-19T19:08:28.779Z,92965.31
2022-10-19T19:16:51.787Z,92893.91
2022-10-19T19:25:15.041Z,92841.49
2022-10-19T19:33:39.223Z,92782.35
2022-10-19T19:42:01.896Z,92745.92
2022-10-19T19:50:24.814Z,92700.15
2022-10-19T19:58:48.064Z,92616.92
2022-10-19T20:07:10.804Z,92546.65
2022-10-19T20:15:37.353Z,92491.48
2022-10-19T20:24:01.474Z,92448.10
2022-10-19T20:32:26.250Z,92443.27
2022-10-19T20:40:49.068Z,92465.27
2022-10-19T20:49:13.195Z,92433.52
2022-10-19T20:57:35.921Z,92380.69
2022-10-19T21:06:02.181Z,92355.44
2022-10-19T21:14:29.236Z,92321.43
2022-10-19T21:22:52.131Z,92283.08
2022-10-19T21:31:16.824Z,92259.52
2022-10-19T21:39:39.639Z,92237.10
2022-10-19T21:48:02.367Z,92220.02
2022-10-19T21:56:25.965Z,92218.95
2022-10-19T22:04:48.660Z,92167.39
2022-10-19T22:13:11.328Z,92128.83
2022-10-19T22:21:35.365Z,92097.92
2022-10-19T22:29:58.182Z,92082.98
2022-10-19T22:38:20.873Z,92081.13
2022-10-19T22:46:43.620Z,92043.59
2022-10-19T22:55:07.419Z,92010.17
2022-10-19T23:03:30.262Z,91969.15
2022-10-19T23:11:53.164Z,91927.59
2022-10-19T23:20:16.095Z,91925.24
2022-10-19T23:28:43.182Z,91933.98
2022-10-19T23:37:06.078Z,91923.01
2022-10-19T23:45:28.809Z,91919.16
2022-10-19T23:53:53.207Z,91927.59
